Amado, AZ (85640)

3:29 PM MST on February 08, 2016 (GMT -0700)
Elephant Head | | Change Station
CLOSE
Current Station
Personal Weather Station
Location: Amado, AZ
Elevation: 3155 ft
Nearby Weather Stations

Elev 3155 ft 31.74 °N, 111.01 °W | Updated 26 seconds ago

Clear
Clear
77.5 °F
Feels Like 76 °F
N
2.7
Wind Variable Wind from WNW
Gusts 3.6 mph

Today
High -- | Low -- °F
--% Chance of Precip.
Yesterday
High -- | Low -- °F
Precip. -- in
Pressure 30.04 in
Visibility 10.0 miles
Clouds Clear
Heat Index 76 °F
Dew Point -17 °F
Humidity 2%
Rainfall 0.00 in
Snow Depth Not available.
7:12 AM 6:04 PM
New Moon, 0% visible
METAR KOLS 082154Z AUTO 07012KT 10SM CLR 26/M11 A3016 RMK AO2 SLP171 T02611111
Pressure 30.04 in
Visibility 10.0 miles
Clouds Clear
Heat Index 76 °F
Dew Point -17 °F
Humidity 2%
Rainfall 0.00 in
Snow Depth Not available.
7:12 AM 6:04 PM
New Moon, 0% visible
METAR KOLS 082154Z AUTO 07012KT 10SM CLR 26/M11 A3016 RMK AO2 SLP171 T02611111

10-Day Weather Forecast

Almanac

Astronomy

Feb. 08, 2016 Rise Set
Actual Time
Civil Twilight
Nautical Twilight
Astronomical Twilight
Moon
Length of Visible Light
Length of Day
Tomorrow will be .
, % of the Moon is Illuminated

Today's Extremes

State Highs State Lows

Community

WunderPhotos

Upload Photos

1,891,518 photos uploaded!

WunderBlog® & News

Nearby

Air Quality

  Air Quality AQ Index Pollutant
Not available.

Snow Depth

Station Depth Elevation

Earthquake Activity

City Distance Mag. Time & Date
Minimum magnitude displayed is 2.5.

Coastal Water Temperatures

Place Temperature

Stations

Nearby Weather Stations

Station Location Temp. Windchill Dew Point Humidity Wind Precip. Elev Updated Type
                   

Watches & Warnings

There are currently no watches in effect.